createdAt,value
2019-05-10T00:00:31.648Z,964.73
2019-05-10T00:02:24.729Z,964.76
2019-05-10T00:03:24.972Z,964.80
2019-05-10T00:05:29.142Z,964.90
2019-05-10T00:06:29.379Z,964.83
2019-05-10T00:08:33.536Z,964.89
2019-05-10T00:09:33.772Z,964.88
2019-05-10T00:11:37.946Z,964.92
2019-05-10T00:12:38.180Z,964.96
2019-05-10T00:14:42.344Z,965.03
2019-05-10T00:15:42.588Z,965.04
2019-05-10T00:17:46.767Z,965.04
2019-05-10T00:18:46.990Z,965.10
2019-05-10T00:20:51.154Z,965.09
2019-05-10T00:21:51.394Z,965.05
2019-05-10T00:23:55.544Z,965.09
2019-05-10T00:25:03.886Z,965.08
2019-05-10T00:26:59.954Z,965.06
2019-05-10T00:28:00.191Z,965.06
2019-05-10T00:30:04.344Z,965.10
2019-05-10T00:31:04.580Z,965.14
2019-05-10T00:33:08.752Z,965.18
2019-05-10T00:34:08.989Z,965.11
2019-05-10T00:36:13.163Z,965.11
2019-05-10T00:37:13.398Z,965.17
2019-05-10T00:39:19.532Z,965.17
2019-05-10T00:40:17.782Z,965.20
2019-05-10T00:42:10.895Z,965.23
2019-05-10T00:43:11.124Z,965.29
2019-05-10T00:45:15.279Z,965.29
2019-05-10T00:46:15.514Z,965.29
2019-05-10T00:48:19.691Z,965.31
2019-05-10T00:49:19.918Z,965.34
2019-05-10T00:51:24.087Z,965.34
2019-05-10T00:52:24.323Z,965.28
2019-05-10T00:54:28.476Z,965.35
2019-05-10T00:55:28.716Z,965.36
2019-05-10T00:57:32.886Z,965.35
2019-05-10T00:58:33.131Z,965.36
2019-05-10T01:00:37.276Z,965.36
2019-05-10T01:01:37.512Z,965.42
2019-05-10T01:03:41.691Z,965.39
2019-05-10T01:04:41.926Z,965.42
2019-05-10T01:06:46.102Z,965.40
2019-05-10T01:07:46.334Z,965.41
2019-05-10T01:09:50.486Z,965.41
2019-05-10T01:10:50.720Z,965.42
2019-05-10T01:12:54.897Z,965.40
2019-05-10T01:13:55.203Z,965.41
2019-05-10T01:15:59.285Z,965.44
2019-05-10T01:16:59.521Z,965.48
2019-05-10T01:19:03.697Z,965.42
2019-05-10T01:20:03.936Z,965.43
2019-05-10T01:21:57.042Z,965.42
2019-05-10T01:22:57.283Z,965.46
2019-05-10T01:25:01.433Z,965.43
2019-05-10T01:26:01.667Z,965.42
2019-05-10T01:28:05.845Z,965.51
2019-05-10T01:29:06.073Z,965.47
2019-05-10T01:31:10.236Z,965.50
2019-05-10T01:32:10.466Z,965.51
2019-05-10T01:34:14.636Z,965.48
2019-05-10T01:35:14.874Z,965.54
2019-05-10T01:37:19.047Z,965.54
2019-05-10T01:38:19.283Z,965.60
2019-05-10T01:40:23.437Z,965.63
2019-05-10T01:41:23.673Z,965.63
2019-05-10T01:43:27.839Z,965.60
2019-05-10T01:44:28.077Z,965.63
2019-05-10T01:46:32.228Z,965.61
2019-05-10T01:47:32.461Z,965.63
2019-05-10T01:49:36.639Z,965.61
2019-05-10T01:50:36.874Z,965.65
2019-05-10T01:52:29.971Z,965.63
2019-05-10T01:53:30.208Z,965.61
2019-05-10T01:55:50.492Z,965.71
2019-05-10T01:56:34.595Z,965.71
2019-05-10T01:58:38.769Z,965.76
2019-05-10T01:59:39.010Z,965.80
2019-05-10T02:01:43.157Z,965.75
2019-05-10T02:02:43.473Z,965.70
2019-05-10T02:04:47.660Z,965.82
2019-05-10T02:05:47.897Z,965.77
2019-05-10T02:07:52.072Z,965.74
2019-05-10T02:08:52.315Z,965.73
2019-05-10T02:10:56.462Z,965.79
2019-05-10T02:11:56.693Z,965.82
2019-05-10T02:14:00.867Z,965.81
2019-05-10T02:15:01.109Z,965.82
2019-05-10T02:17:05.262Z,965.85
2019-05-10T02:18:05.502Z,965.84
2019-05-10T02:20:09.681Z,965.88
2019-05-10T02:21:09.918Z,965.85
2019-05-10T02:23:14.095Z,965.84
2019-05-10T02:24:14.334Z,965.82
2019-05-10T02:26:18.495Z,965.87
2019-05-10T02:27:18.734Z,965.93
2019-05-10T02:29:22.917Z,965.85
2019-05-10T02:30:23.151Z,965.90
2019-05-10T02:32:16.227Z,965.96
2019-05-10T02:33:16.466Z,965.99
2019-05-10T02:35:20.637Z,966.05
2019-05-10T02:36:20.880Z,966.02
2019-05-10T02:38:25.062Z,966.01
2019-05-10T02:39:25.287Z,966.09
2019-05-10T02:41:29.437Z,966.04
2019-05-10T02:42:29.675Z,966.07
2019-05-10T02:44:33.847Z,966.07
2019-05-10T02:45:34.086Z,966.08
2019-05-10T02:47:38.236Z,966.07
2019-05-10T02:48:38.476Z,966.20
2019-05-10T02:50:42.647Z,966.17
2019-05-10T02:51:42.897Z,966.14
2019-05-10T02:53:47.059Z,966.16
2019-05-10T02:54:47.296Z,966.15
2019-05-10T02:56:51.459Z,966.13
2019-05-10T02:57:51.697Z,966.20
2019-05-10T02:59:55.869Z,966.18
2019-05-10T03:00:56.107Z,966.14
2019-05-10T03:03:00.262Z,966.16
2019-05-10T03:04:00.493Z,966.22
2019-05-10T03:06:04.674Z,966.25
2019-05-10T03:07:04.911Z,966.26
2019-05-10T03:09:09.087Z,966.29
2019-05-10T03:10:09.321Z,966.28
2019-05-10T03:12:02.494Z,966.27
2019-05-10T03:13:02.655Z,966.31
2019-05-10T03:15:06.815Z,966.34
2019-05-10T03:16:07.053Z,966.27
2019-05-10T03:18:11.208Z,966.30
2019-05-10T03:19:11.449Z,966.27
2019-05-10T03:21:15.623Z,966.33
2019-05-10T03:22:15.862Z,966.32
2019-05-10T03:24:20.034Z,966.28
2019-05-10T03:25:20.275Z,966.34
2019-05-10T03:27:24.441Z,966.35
2019-05-10T03:28:24.658Z,966.39
2019-05-10T03:30:28.833Z,966.40
2019-05-10T03:31:29.068Z,966.39
2019-05-10T03:33:33.243Z,966.43
2019-05-10T03:34:33.544Z,966.46
2019-05-10T03:36:37.662Z,966.55
2019-05-10T03:37:37.899Z,966.54
2019-05-10T03:39:42.083Z,966.58
2019-05-10T03:40:42.313Z,966.60
2019-05-10T03:42:35.396Z,966.61
2019-05-10T03:43:35.635Z,966.61
2019-05-10T03:45:39.818Z,966.61
2019-05-10T03:46:40.056Z,966.64
2019-05-10T03:48:44.206Z,966.65
2019-05-10T03:49:44.447Z,966.68
2019-05-10T03:51:48.615Z,966.79
2019-05-10T03:52:51.905Z,966.76
2019-05-10T03:54:53.028Z,966.69
2019-05-10T03:55:53.267Z,966.71
2019-05-10T03:57:57.414Z,966.73
2019-05-10T03:58:57.652Z,966.71
2019-05-10T04:01:01.821Z,966.72
2019-05-10T04:02:02.064Z,966.75
2019-05-10T04:04:09.486Z,966.77
2019-05-10T04:05:06.459Z,966.77
2019-05-10T04:07:10.620Z,966.80
2019-05-10T04:08:10.858Z,966.82
2019-05-10T04:10:15.024Z,966.81
2019-05-10T04:11:15.259Z,966.81
2019-05-10T04:13:19.409Z,966.83
2019-05-10T04:14:19.645Z,966.88
2019-05-10T04:16:23.818Z,966.94
2019-05-10T04:17:24.058Z,966.94
2019-05-10T04:19:28.214Z,966.99
2019-05-10T04:20:28.454Z,967.00
2019-05-10T04:22:21.554Z,967.06
2019-05-10T04:23:21.788Z,967.03
2019-05-10T04:25:25.977Z,967.10
2019-05-10T04:26:26.215Z,967.04
2019-05-10T04:28:30.367Z,967.02
2019-05-10T04:29:30.605Z,967.07
2019-05-10T04:31:34.777Z,967.02
2019-05-10T04:32:35.021Z,967.09
2019-05-10T04:34:39.170Z,967.03
2019-05-10T04:35:39.410Z,967.00
2019-05-10T04:37:43.579Z,967.07
2019-05-10T04:38:43.815Z,967.09
2019-05-10T04:40:47.987Z,967.15
2019-05-10T04:41:48.223Z,967.17
2019-05-10T04:43:52.380Z,967.24
2019-05-10T04:44:53.815Z,967.22
2019-05-10T04:46:56.789Z,967.25
2019-05-10T04:47:57.027Z,967.25
2019-05-10T04:50:01.190Z,967.27
2019-05-10T04:51:01.427Z,967.24
2019-05-10T04:53:05.607Z,967.24
2019-05-10T04:54:05.833Z,967.30
2019-05-10T04:56:10.012Z,967.27
2019-05-10T04:57:10.246Z,967.36
2019-05-10T04:59:14.404Z,967.35
2019-05-10T05:00:14.645Z,967.31
2019-05-10T05:02:07.751Z,967.29
2019-05-10T05:03:07.980Z,967.32
2019-05-10T05:05:12.130Z,967.29
2019-05-10T05:06:12.366Z,967.29
2019-05-10T05:08:16.539Z,967.29
2019-05-10T05:09:16.779Z,967.39
2019-05-10T05:11:20.957Z,967.43
2019-05-10T05:12:21.193Z,967.45
2019-05-10T05:14:25.338Z,967.44
2019-05-10T05:15:25.582Z,967.41
2019-05-10T05:17:29.763Z,967.56
2019-05-10T05:18:30.004Z,967.55
2019-05-10T05:20:34.155Z,967.50
2019-05-10T05:21:34.393Z,967.64
2019-05-10T05:23:38.567Z,967.57
2019-05-10T05:24:38.805Z,967.59
2019-05-10T05:26:42.972Z,967.62
2019-05-10T05:27:43.206Z,967.63
2019-05-10T05:29:47.361Z,967.63
2019-05-10T05:30:47.610Z,967.66
2019-05-10T05:32:44.426Z,967.66
2019-05-10T05:33:40.946Z,967.68
2019-05-10T05:35:45.101Z,967.61
2019-05-10T05:36:45.341Z,967.73
2019-05-10T05:38:49.699Z,967.73
2019-05-10T05:39:49.756Z,967.74
2019-05-10T05:41:56.752Z,967.74
2019-05-10T05:42:54.186Z,967.70
2019-05-10T05:44:58.341Z,967.81
2019-05-10T05:45:58.573Z,967.84
2019-05-10T05:48:03.778Z,967.85
2019-05-10T05:49:04.007Z,967.81
2019-05-10T05:51:08.231Z,967.79
2019-05-10T05:52:08.395Z,967.80
2019-05-10T05:54:15.253Z,967.84
2019-05-10T05:55:12.804Z,967.85
2019-05-10T05:57:16.979Z,967.82
2019-05-10T05:58:26.855Z,967.91
2019-05-10T06:00:21.376Z,967.86
2019-05-10T06:01:26.331Z,967.86
2019-05-10T06:03:29.691Z,967.90
2019-05-10T06:04:26.027Z,967.86
2019-05-10T06:06:30.182Z,967.86
2019-05-10T06:07:31.077Z,967.89
2019-05-10T06:09:37.820Z,967.93
2019-05-10T06:10:34.860Z,967.90
2019-05-10T06:12:27.966Z,967.81
2019-05-10T06:13:30.138Z,967.95
2019-05-10T06:15:32.358Z,967.97
2019-05-10T06:16:32.604Z,967.94
2019-05-10T06:18:41.535Z,967.93
2019-05-10T06:19:37.008Z,967.98
2019-05-10T06:21:42.168Z,968.03
2019-05-10T06:22:43.972Z,968.02
2019-05-10T06:24:51.860Z,968.00
2019-05-10T06:25:46.853Z,968.02
2019-05-10T06:27:50.997Z,968.07
2019-05-10T06:29:03.812Z,968.02
2019-05-10T06:30:55.393Z,968.07
2019-05-10T06:31:58.831Z,968.17
2019-05-10T06:33:59.811Z,968.17
2019-05-10T06:35:00.051Z,968.13
2019-05-10T06:37:04.211Z,968.22
2019-05-10T06:38:04.514Z,968.17
2019-05-10T06:40:08.643Z,968.19
2019-05-10T06:41:09.976Z,968.23
2019-05-10T06:43:15.410Z,968.23
2019-05-10T06:44:13.592Z,968.23
2019-05-10T06:46:17.757Z,968.25
2019-05-10T06:47:21.509Z,968.25
2019-05-10T06:49:22.168Z,968.24
2019-05-10T06:50:28.928Z,968.28
2019-05-10T06:52:16.449Z,968.28
2019-05-10T06:53:15.736Z,968.28
2019-05-10T06:55:20.452Z,968.22
2019-05-10T06:56:20.723Z,968.32
2019-05-10T06:58:24.871Z,968.35
2019-05-10T06:59:26.337Z,968.33
2019-05-10T07:01:29.270Z,968.34
2019-05-10T07:02:32.367Z,968.30
2019-05-10T07:04:37.853Z,968.23
2019-05-10T07:05:33.899Z,968.26
2019-05-10T07:07:45.683Z,968.36
2019-05-10T07:08:44.204Z,968.30
2019-05-10T07:10:42.466Z,968.31
2019-05-10T07:11:43.801Z,968.31
2019-05-10T07:13:52.029Z,968.44
2019-05-10T07:14:47.116Z,968.45
2019-05-10T07:16:51.269Z,968.47
2019-05-10T07:17:51.946Z,968.43
2019-05-10T07:19:55.686Z,968.44
2019-05-10T07:21:00.767Z,968.52
2019-05-10T07:23:05.875Z,968.55
2019-05-10T07:24:00.332Z,968.50
2019-05-10T07:26:04.497Z,968.40
2019-05-10T07:27:05.876Z,968.41
2019-05-10T07:29:08.921Z,968.42
2019-05-10T07:30:09.155Z,968.44
2019-05-10T07:32:02.235Z,968.29
2019-05-10T07:33:02.482Z,968.35
2019-05-10T07:35:06.655Z,968.35
2019-05-10T07:36:14.506Z,968.38
2019-05-10T07:38:11.054Z,968.41
2019-05-10T07:39:11.309Z,968.35
2019-05-10T07:41:19.774Z,968.44
2019-05-10T07:42:15.706Z,968.48
2019-05-10T07:44:19.904Z,968.56
2019-05-10T07:45:25.478Z,968.49
2019-05-10T07:47:30.302Z,968.59
2019-05-10T07:48:24.557Z,968.51
2019-05-10T07:50:28.746Z,968.57
2019-05-10T07:51:30.308Z,968.60
2019-05-10T07:53:33.127Z,968.64
2019-05-10T07:54:37.372Z,968.58
2019-05-10T07:56:38.954Z,968.70
2019-05-10T07:57:37.786Z,968.66
2019-05-10T07:59:50.140Z,968.65
2019-05-10T08:00:44.234Z,968.67
2019-05-10T08:02:35.282Z,968.70
2019-05-10T08:03:40.532Z,968.71
2019-05-10T08:05:39.712Z,968.75
2019-05-10T08:06:47.256Z,968.78
2019-05-10T08:08:44.108Z,968.80
2019-05-10T08:09:46.200Z,968.88
2019-05-10T08:11:48.610Z,968.92
2019-05-10T08:12:48.773Z,968.92
2019-05-10T08:14:53.710Z,968.89
2019-05-10T08:15:53.186Z,968.92
2019-05-10T08:17:58.535Z,968.96
2019-05-10T08:19:01.012Z,969.00
2019-05-10T08:21:03.388Z,969.01
2019-05-10T08:22:04.445Z,969.01
2019-05-10T08:24:13.445Z,969.05
2019-05-10T08:25:06.404Z,969.13
2019-05-10T08:27:14.526Z,969.14
2019-05-10T08:28:12.741Z,969.10
2019-05-10T08:30:25.065Z,969.02
2019-05-10T08:31:15.238Z,969.11
2019-05-10T08:33:19.400Z,969.12
2019-05-10T08:34:19.647Z,969.17
2019-05-10T08:36:23.821Z,969.16
2019-05-10T08:37:30.913Z,969.22
2019-05-10T08:39:34.875Z,969.26
2019-05-10T08:40:35.133Z,969.27
2019-05-10T08:42:38.044Z,969.29
2019-05-10T08:43:24.327Z,969.28
2019-05-10T08:45:25.998Z,969.27
2019-05-10T08:46:36.988Z,969.29
2019-05-10T08:48:32.871Z,969.32
2019-05-10T08:49:41.535Z,969.34
2019-05-10T08:51:39.922Z,969.26
2019-05-10T08:52:35.085Z,969.27
2019-05-10T08:54:39.245Z,969.29
2019-05-10T08:55:39.486Z,969.29
2019-05-10T08:57:49.152Z,969.34
2019-05-10T08:58:43.904Z,969.21
2019-05-10T09:00:54.828Z,969.41
2019-05-10T09:01:50.797Z,969.37
2019-05-10T09:03:59.333Z,969.29
2019-05-10T09:04:53.003Z,969.35
2019-05-10T09:06:59.885Z,969.45
2019-05-10T09:07:57.142Z,969.49
2019-05-10T09:10:02.269Z,969.45
2019-05-10T09:11:06.391Z,969.54
2019-05-10T09:13:05.725Z,969.58
2019-05-10T09:14:05.951Z,969.56
2019-05-10T09:16:10.136Z,969.64
2019-05-10T09:17:14.772Z,969.58
2019-05-10T09:19:14.535Z,969.60
2019-05-10T09:20:20.931Z,969.62
2019-05-10T09:22:07.881Z,969.68
2019-05-10T09:23:08.700Z,969.65
2019-05-10T09:25:13.037Z,969.72
2019-05-10T09:26:16.495Z,969.71
2019-05-10T09:28:17.185Z,969.78
2019-05-10T09:29:16.944Z,969.75
2019-05-10T09:31:24.894Z,969.76
2019-05-10T09:32:28.705Z,969.75
2019-05-10T09:34:27.114Z,969.81
2019-05-10T09:35:25.762Z,969.86
2019-05-10T09:37:32.028Z,969.82
2019-05-10T09:38:34.917Z,969.88
2019-05-10T09:40:34.356Z,969.92
2019-05-10T09:41:38.263Z,969.81
2019-05-10T09:43:40.452Z,969.94
2019-05-10T09:44:39.012Z,969.95
2019-05-10T09:46:43.166Z,969.93
2019-05-10T09:47:43.790Z,970.03
2019-05-10T09:49:56.539Z,970.15
2019-05-10T09:50:47.818Z,970.06
2019-05-10T09:52:40.905Z,970.08
2019-05-10T09:53:41.132Z,970.08
2019-05-10T09:55:50.487Z,970.13
2019-05-10T09:56:51.723Z,970.11
2019-05-10T09:58:49.725Z,970.10
2019-05-10T09:59:49.960Z,970.04
2019-05-10T10:01:54.116Z,970.19
2019-05-10T10:02:56.942Z,970.20
2019-05-10T10:04:59.002Z,970.23
2019-05-10T10:06:05.085Z,970.31
2019-05-10T10:08:03.769Z,970.34
2019-05-10T10:09:03.210Z,970.28
2019-05-10T10:11:15.031Z,970.33
2019-05-10T10:12:07.650Z,970.37
2019-05-10T10:14:11.812Z,970.26
2019-05-10T10:15:18.791Z,970.33
2019-05-10T10:17:18.328Z,970.25
2019-05-10T10:18:21.419Z,970.27
2019-05-10T10:20:20.658Z,970.31
2019-05-10T10:21:30.639Z,970.39
2019-05-10T10:23:33.127Z,970.45
2019-05-10T10:24:25.299Z,970.47
2019-05-10T10:26:29.460Z,970.62
2019-05-10T10:27:34.724Z,970.45
2019-05-10T10:29:35.951Z,970.50
2019-05-10T10:30:34.117Z,970.40
2019-05-10T10:32:31.658Z,970.36
2019-05-10T10:33:29.151Z,970.42
2019-05-10T10:35:31.621Z,970.46
2019-05-10T10:36:31.860Z,970.38
2019-05-10T10:38:39.742Z,970.43
2019-05-10T10:39:37.198Z,970.53
2019-05-10T10:41:40.450Z,970.53
2019-05-10T10:42:40.718Z,970.57
2019-05-10T10:44:44.865Z,971.12
2019-05-10T10:45:45.108Z,970.59
2019-05-10T10:47:49.267Z,970.55
2019-05-10T10:48:51.386Z,970.57
2019-05-10T10:50:55.664Z,970.56
2019-05-10T10:51:53.936Z,970.49
2019-05-10T10:53:58.373Z,970.52
2019-05-10T10:54:58.358Z,970.65
2019-05-10T10:57:02.520Z,970.64
2019-05-10T10:58:02.765Z,970.64
2019-05-10T11:00:07.681Z,970.73
2019-05-10T11:01:10.811Z,970.75
2019-05-10T11:03:11.463Z,970.81
2019-05-10T11:04:11.716Z,970.73
2019-05-10T11:06:16.066Z,970.71
2019-05-10T11:07:16.325Z,970.67
2019-05-10T11:09:20.777Z,970.62
2019-05-10T11:10:22.256Z,970.64
2019-05-10T11:12:14.659Z,970.66
2019-05-10T11:13:18.982Z,970.59
2019-05-10T11:15:26.114Z,970.66
2019-05-10T11:16:20.659Z,970.66
2019-05-10T11:18:22.693Z,970.69
2019-05-10T11:19:22.941Z,970.69
2019-05-10T11:21:28.602Z,970.78
2019-05-10T11:22:27.637Z,970.72
2019-05-10T11:24:31.556Z,970.76
2019-05-10T11:25:31.804Z,970.76
2019-05-10T11:27:35.971Z,970.71
2019-05-10T11:28:43.835Z,970.77
2019-05-10T11:30:40.407Z,970.74
2019-05-10T11:31:41.382Z,970.66
2019-05-10T11:33:47.220Z,970.64
2019-05-10T11:34:45.060Z,970.69
2019-05-10T11:36:51.179Z,970.67
2019-05-10T11:37:50.879Z,970.67
2019-05-10T11:39:53.675Z,970.66
2019-05-10T11:40:53.919Z,970.75
2019-05-10T11:42:58.091Z,970.71
2019-05-10T11:44:05.610Z,970.67
2019-05-10T11:46:02.698Z,970.73
2019-05-10T11:47:02.939Z,970.76
2019-05-10T11:49:07.180Z,970.75
2019-05-10T11:50:07.395Z,970.74
2019-05-10T11:52:01.727Z,970.71
2019-05-10T11:53:01.031Z,970.78
2019-05-10T11:55:05.457Z,970.67
2019-05-10T11:56:07.788Z,970.72
2019-05-10T11:58:12.983Z,970.77
2019-05-10T11:59:12.449Z,970.69
2019-05-10T12:01:19.026Z,970.65
2019-05-10T12:02:33.944Z,970.67
2019-05-10T12:04:23.862Z,970.87
2019-05-10T12:05:22.778Z,970.92
2019-05-10T12:07:33.992Z,971.05
2019-05-10T12:08:23.695Z,971.46
2019-05-10T12:10:27.870Z,971.34
2019-05-10T12:11:33.592Z,971.29
2019-05-10T12:13:32.797Z,971.14
2019-05-10T12:14:32.742Z,970.95
2019-05-10T12:16:36.990Z,970.90
2019-05-10T12:17:37.289Z,970.93
2019-05-10T12:19:47.746Z,970.88
2019-05-10T12:22:38.137Z,971.03
2019-05-10T12:23:45.833Z,970.86
2019-05-10T12:25:53.056Z,970.99
2019-05-10T12:26:27.897Z,970.89
2019-05-10T12:28:46.164Z,970.93
2019-05-10T12:29:51.391Z,970.91
2019-05-10T12:31:55.550Z,970.90
2019-05-10T12:32:56.174Z,970.87
2019-05-10T12:34:56.734Z,970.87
2019-05-10T12:35:56.532Z,970.86
2019-05-10T12:38:01.633Z,970.90
2019-05-10T12:39:01.778Z,970.90
2019-05-10T12:41:06.941Z,971.27
2019-05-10T12:42:07.173Z,971.23
2019-05-10T12:44:11.503Z,971.20
2019-05-10T12:45:11.836Z,971.20
2019-05-10T12:47:16.155Z,971.07
2019-05-10T12:48:16.432Z,971.11
2019-05-10T12:50:20.814Z,971.17
2019-05-10T12:51:21.214Z,971.08
2019-05-10T12:53:25.148Z,971.00
2019-05-10T12:54:25.610Z,971.12
2019-05-10T12:56:34.945Z,971.03
2019-05-10T12:57:30.020Z,970.97
2019-05-10T12:59:34.938Z,971.08
2019-05-10T13:00:34.549Z,971.10
2019-05-10T13:02:38.752Z,971.09
2019-05-10T13:03:39.001Z,971.16
2019-05-10T13:05:52.163Z,970.96
2019-05-10T13:06:43.638Z,970.90
2019-05-10T13:08:49.337Z,970.95
2019-05-10T13:09:50.145Z,970.92
2019-05-10T13:12:03.242Z,970.86
2019-05-10T13:12:53.112Z,970.90
2019-05-10T13:14:57.364Z,970.92
2019-05-10T13:15:57.650Z,971.17
2019-05-10T13:18:01.835Z,971.29
2019-05-10T13:19:02.081Z,971.17
2019-05-10T13:21:07.914Z,971.08
2019-05-10T13:22:07.538Z,971.06
2019-05-10T13:24:11.224Z,971.05
2019-05-10T13:25:11.475Z,971.07
2019-05-10T13:27:15.648Z,971.26
2019-05-10T13:28:15.896Z,971.10
2019-05-10T13:30:27.459Z,971.37
2019-05-10T13:31:20.340Z,971.34
2019-05-10T13:33:29.078Z,971.31
2019-05-10T13:34:24.917Z,971.35
2019-05-10T13:36:30.580Z,971.31
2019-05-10T13:37:29.289Z,971.35
2019-05-10T13:39:33.477Z,971.34
2019-05-10T13:40:38.918Z,971.35
2019-05-10T13:42:26.921Z,971.33
2019-05-10T13:43:28.421Z,971.34
2019-05-10T13:45:31.822Z,971.04
2019-05-10T13:46:31.634Z,971.01
2019-05-10T13:48:35.841Z,971.06
2019-05-10T13:49:36.093Z,971.36
2019-05-10T13:51:40.284Z,971.34
2019-05-10T13:52:41.453Z,971.34
2019-05-10T13:54:44.730Z,971.38
2019-05-10T13:55:44.981Z,971.09
2019-05-10T13:57:49.150Z,971.12
2019-05-10T13:58:49.402Z,971.17
2019-05-10T14:00:53.590Z,971.19
2019-05-10T14:01:53.841Z,971.18
2019-05-10T14:04:01.450Z,971.35
2019-05-10T14:04:58.261Z,971.34
2019-05-10T14:07:02.456Z,971.39
2019-05-10T14:08:02.701Z,971.06
2019-05-10T14:10:06.902Z,971.12
2019-05-10T14:11:07.151Z,971.18
2019-05-10T14:13:11.318Z,971.19
2019-05-10T14:14:14.528Z,971.42
2019-05-10T14:16:19.524Z,971.39
2019-05-10T14:17:16.010Z,971.49
2019-05-10T14:19:22.870Z,971.36
2019-05-10T14:20:25.051Z,971.34
2019-05-10T14:22:13.547Z,971.10
2019-05-10T14:23:17.422Z,971.33
2019-05-10T14:25:17.991Z,971.35
2019-05-10T14:26:18.433Z,971.38
2019-05-10T14:28:22.417Z,971.23
2019-05-10T14:29:33.470Z,971.26
2019-05-10T14:31:27.872Z,971.28
2019-05-10T14:32:28.117Z,971.29
2019-05-10T14:34:37.885Z,971.21
2019-05-10T14:35:32.998Z,971.15
2019-05-10T14:37:37.222Z,971.06
2019-05-10T14:38:37.476Z,971.17
2019-05-10T14:40:41.671Z,971.05
2019-05-10T14:41:45.167Z,971.07
2019-05-10T14:43:47.538Z,971.16
2019-05-10T14:44:46.971Z,971.28
2019-05-10T14:46:51.663Z,971.12
2019-05-10T14:47:51.912Z,971.04
2019-05-10T14:49:56.611Z,971.22
2019-05-10T14:51:03.275Z,971.05
2019-05-10T14:53:01.039Z,971.04
2019-05-10T14:54:06.680Z,971.02
2019-05-10T14:56:07.975Z,971.29
2019-05-10T14:57:06.731Z,971.35
2019-05-10T14:59:12.420Z,971.35
2019-05-10T15:00:12.666Z,971.31
2019-05-10T15:02:06.270Z,971.43
2019-05-10T15:03:06.550Z,971.37
2019-05-10T15:05:15.611Z,971.36
2019-05-10T15:06:12.477Z,971.43
2019-05-10T15:08:17.153Z,971.42
2019-05-10T15:09:21.488Z,971.46
2019-05-10T15:11:26.489Z,971.29
2019-05-10T15:12:22.914Z,971.29
2019-05-10T15:14:28.099Z,971.41
2019-05-10T15:15:31.248Z,971.44
2019-05-10T15:17:33.117Z,971.43
2019-05-10T15:18:33.272Z,971.45
2019-05-10T15:20:37.491Z,971.33
2019-05-10T15:21:37.718Z,971.40
2019-05-10T15:23:42.421Z,971.37
2019-05-10T15:24:42.685Z,971.47
2019-05-10T15:26:46.858Z,971.43
2019-05-10T15:27:47.106Z,971.49
2019-05-10T15:29:51.794Z,971.41
2019-05-10T15:30:52.762Z,971.40
2019-05-10T15:32:56.205Z,971.44
2019-05-10T15:33:56.447Z,971.42
2019-05-10T15:36:02.115Z,971.38
2019-05-10T15:37:09.019Z,971.43
2019-05-10T15:39:06.558Z,971.46
2019-05-10T15:40:07.986Z,971.45
2019-05-10T15:42:00.965Z,971.44
2019-05-10T15:43:03.000Z,971.38
2019-05-10T15:45:11.293Z,971.41
2019-05-10T15:46:05.074Z,971.41
2019-05-10T15:48:09.275Z,971.45
2019-05-10T15:49:13.380Z,971.38
2019-05-10T15:51:16.895Z,971.35
2019-05-10T15:52:18.097Z,971.35
2019-05-10T15:54:18.138Z,971.43
2019-05-10T15:55:27.162Z,971.42
2019-05-10T15:57:24.096Z,971.40
2019-05-10T15:58:24.294Z,971.47
2019-05-10T16:00:37.399Z,971.47
2019-05-10T16:01:29.225Z,971.51
2019-05-10T16:03:33.395Z,971.46
2019-05-10T16:04:33.646Z,971.48
2019-05-10T16:06:39.383Z,971.44
2019-05-10T16:07:38.544Z,971.42
2019-05-10T16:09:43.299Z,971.48
2019-05-10T16:10:43.486Z,971.56
2019-05-10T16:12:37.888Z,971.51
2019-05-10T16:13:37.346Z,971.51
2019-05-10T16:15:42.167Z,971.57
2019-05-10T16:16:42.259Z,971.55
2019-05-10T16:18:46.458Z,971.55
2019-05-10T16:19:50.358Z,971.56
2019-05-10T16:21:52.233Z,971.59
2019-05-10T16:22:51.134Z,971.51
2019-05-10T16:25:00.507Z,971.52
2019-05-10T16:25:55.550Z,971.52
2019-05-10T16:27:59.740Z,971.50
2019-05-10T16:29:02.199Z,971.52
2019-05-10T16:31:04.155Z,971.57
2019-05-10T16:32:04.393Z,971.53
2019-05-10T16:34:09.592Z,971.50
2019-05-10T16:35:12.757Z,971.53
2019-05-10T16:37:14.024Z,971.51
2019-05-10T16:38:14.270Z,971.54
2019-05-10T16:40:18.442Z,971.59
2019-05-10T16:41:18.679Z,971.52
2019-05-10T16:43:24.769Z,971.68
2019-05-10T16:44:23.173Z,971.69
2019-05-10T16:46:27.285Z,971.64
2019-05-10T16:47:27.518Z,971.65
2019-05-10T16:49:31.702Z,971.62
2019-05-10T16:50:33.748Z,971.67
2019-05-10T16:52:26.503Z,971.65
2019-05-10T16:53:25.305Z,971.62
2019-05-10T16:55:29.467Z,971.67
2019-05-10T16:56:29.708Z,971.69
2019-05-10T16:58:34.900Z,971.64
2019-05-10T16:59:35.404Z,971.65
2019-05-10T17:01:39.305Z,971.65
2019-05-10T17:02:42.208Z,971.60
2019-05-10T17:04:44.491Z,971.62
2019-05-10T17:05:53.115Z,971.59
2019-05-10T17:07:53.521Z,971.58
2019-05-10T17:08:49.030Z,971.59
2019-05-10T17:10:53.233Z,971.58
2019-05-10T17:11:53.468Z,971.52
2019-05-10T17:13:58.332Z,971.62
2019-05-10T17:15:02.798Z,971.55
2019-05-10T17:17:02.111Z,971.56
2019-05-10T17:18:02.354Z,971.57
2019-05-10T17:20:07.234Z,971.59
2019-05-10T17:21:06.881Z,971.54
2019-05-10T17:23:11.312Z,971.56
2019-05-10T17:24:11.327Z,971.56
2019-05-10T17:26:15.548Z,971.56
2019-05-10T17:27:15.779Z,971.52
2019-05-10T17:29:19.970Z,971.57
2019-05-10T17:30:21.676Z,971.54
2019-05-10T17:32:13.296Z,971.53
2019-05-10T17:33:13.542Z,971.51
2019-05-10T17:35:17.722Z,971.54
2019-05-10T17:36:19.724Z,971.54
2019-05-10T17:38:22.144Z,971.57
2019-05-10T17:39:26.194Z,971.57
2019-05-10T17:41:27.013Z,971.59
2019-05-10T17:42:26.785Z,971.65
2019-05-10T17:44:30.979Z,971.64
2019-05-10T17:45:34.871Z,971.69
2019-05-10T17:47:35.373Z,971.65
2019-05-10T17:48:35.623Z,971.65
2019-05-10T17:50:39.801Z,971.73
2019-05-10T17:51:40.042Z,971.72
2019-05-10T17:53:44.334Z,971.68
2019-05-10T17:54:44.555Z,971.69
2019-05-10T17:56:48.738Z,971.73
2019-05-10T17:57:54.723Z,971.72
2019-05-10T17:59:54.678Z,971.72
2019-05-10T18:00:53.589Z,971.70
2019-05-10T18:02:57.812Z,971.68
2019-05-10T18:03:58.016Z,971.65
2019-05-10T18:06:02.239Z,971.67
2019-05-10T18:07:02.544Z,971.72
2019-05-10T18:09:06.724Z,971.77
2019-05-10T18:10:06.962Z,971.79
2019-05-10T18:12:00.049Z,971.76
2019-05-10T18:13:03.374Z,971.73
2019-05-10T18:15:05.099Z,971.67
2019-05-10T18:16:09.107Z,971.61
2019-05-10T18:18:08.874Z,971.59
2019-05-10T18:19:09.115Z,971.61
2019-05-10T18:21:16.088Z,971.57
2019-05-10T18:22:13.536Z,971.57
2019-05-10T18:24:17.721Z,971.60
2019-05-10T18:25:20.215Z,971.61
2019-05-10T18:27:22.119Z,971.56
2019-05-10T18:28:22.363Z,971.54
2019-05-10T18:30:26.537Z,971.52
2019-05-10T18:31:26.781Z,971.49
2019-05-10T18:33:30.937Z,971.50
2019-05-10T18:34:33.216Z,971.52
2019-05-10T18:36:51.059Z,971.52
2019-05-10T18:37:35.607Z,971.52
2019-05-10T18:39:39.786Z,971.55
2019-05-10T18:40:40.029Z,971.55
2019-05-10T18:42:33.120Z,971.53
2019-05-10T18:43:35.447Z,971.56
2019-05-10T18:45:37.538Z,971.49
2019-05-10T18:46:37.781Z,971.49
2019-05-10T18:48:41.940Z,971.45
2019-05-10T18:49:42.180Z,971.43
2019-05-10T18:51:46.353Z,971.46
2019-05-10T18:52:46.595Z,971.45
2019-05-10T18:54:50.769Z,971.39
2019-05-10T18:55:51.013Z,971.38
2019-05-10T18:57:55.164Z,971.43
2019-05-10T18:58:55.405Z,971.48
2019-05-10T19:01:00.553Z,971.44
2019-05-10T19:01:59.827Z,971.40
2019-05-10T19:04:07.246Z,971.43
2019-05-10T19:05:04.220Z,971.43
2019-05-10T19:07:10.317Z,971.47